sensor_id;sensor_type;location;lat;lon;timestamp;P1;durP1;ratioP1;P2;durP2;ratioP2
66741;SDS011;53654;54.152;19.432;2022-10-28T00:01:24;69.70;;;50.70;;
66741;SDS011;53654;54.152;19.432;2022-10-28T00:03:54;60.00;;;50.10;;
66741;SDS011;53654;54.152;19.432;2022-10-28T00:06:25;75.10;;;49.50;;
66741;SDS011;53654;54.152;19.432;2022-10-28T00:08:55;91.70;;;50.10;;
66741;SDS011;53654;54.152;19.432;2022-10-28T00:11:27;66.30;;;48.30;;
66741;SDS011;53654;54.152;19.432;2022-10-28T00:14:00;73.70;;;49.20;;
66741;SDS011;53654;54.152;19.432;2022-10-28T00:16:31;69.80;;;51.30;;
66741;SDS011;53654;54.152;19.432;2022-10-28T00:19:01;68.60;;;46.80;;
66741;SDS011;53654;54.152;19.432;2022-10-28T00:21:32;62.30;;;47.30;;
66741;SDS011;53654;54.152;19.432;2022-10-28T00:24:02;58.00;;;47.70;;
66741;SDS011;53654;54.152;19.432;2022-10-28T00:26:31;54.40;;;46.90;;
66741;SDS011;53654;54.152;19.432;2022-10-28T00:29:02;53.70;;;47.90;;
66741;SDS011;53654;54.152;19.432;2022-10-28T00:31:33;52.60;;;46.90;;
66741;SDS011;53654;54.152;19.432;2022-10-28T00:34:04;57.30;;;47.20;;
66741;SDS011;53654;54.152;19.432;2022-10-28T00:36:35;52.70;;;47.00;;
66741;SDS011;53654;54.152;19.432;2022-10-28T00:39:08;53.20;;;47.30;;
66741;SDS011;53654;54.152;19.432;2022-10-28T00:41:41;54.40;;;47.90;;
66741;SDS011;53654;54.152;19.432;2022-10-28T00:47:13;52.20;;;46.60;;
66741;SDS011;53654;54.152;19.432;2022-10-28T00:49:54;52.10;;;46.60;;
66741;SDS011;53654;54.152;19.432;2022-10-28T00:52:27;52.70;;;47.10;;
66741;SDS011;53654;54.152;19.432;2022-10-28T00:54:58;54.70;;;46.40;;
66741;SDS011;53654;54.152;19.432;2022-10-28T00:57:31;51.80;;;46.10;;
66741;SDS011;53654;54.152;19.432;2022-10-28T01:00:03;57.30;;;47.00;;
66741;SDS011;53654;54.152;19.432;2022-10-28T01:02:33;58.00;;;47.20;;
66741;SDS011;53654;54.152;19.432;2022-10-28T01:05:10;55.40;;;46.80;;
66741;SDS011;53654;54.152;19.432;2022-10-28T01:07:40;54.70;;;47.20;;
66741;SDS011;53654;54.152;19.432;2022-10-28T01:10:08;57.10;;;46.40;;
66741;SDS011;53654;54.152;19.432;2022-10-28T01:17:53;54.90;;;44.80;;
66741;SDS011;53654;54.152;19.432;2022-10-28T01:35:05;77.10;;;45.40;;
66741;SDS011;53654;54.152;19.432;2022-10-28T01:37:59;131.80;;;44.40;;
66741;SDS011;53654;54.152;19.432;2022-10-28T01:43:25;150.70;;;46.50;;
66741;SDS011;53654;54.152;19.432;2022-10-28T01:46:00;148.10;;;47.10;;
66741;SDS011;53654;54.152;19.432;2022-10-28T01:48:51;135.70;;;46.70;;
66741;SDS011;53654;54.152;19.432;2022-10-28T01:51:28;184.60;;;48.30;;
66741;SDS011;53654;54.152;19.432;2022-10-28T01:54:16;137.90;;;48.10;;
66741;SDS011;53654;54.152;19.432;2022-10-28T01:56:49;178.90;;;46.60;;
66741;SDS011;53654;54.152;19.432;2022-10-28T01:59:24;167.20;;;47.00;;
66741;SDS011;53654;54.152;19.432;2022-10-28T02:01:55;158.10;;;47.50;;
66741;SDS011;53654;54.152;19.432;2022-10-28T02:04:24;155.30;;;48.30;;
66741;SDS011;53654;54.152;19.432;2022-10-28T02:06:52;152.90;;;47.90;;
66741;SDS011;53654;54.152;19.432;2022-10-28T02:12:37;183.70;;;46.80;;
66741;SDS011;53654;54.152;19.432;2022-10-28T02:20:20;136.20;;;44.40;;
66741;SDS011;53654;54.152;19.432;2022-10-28T02:23:35;134.00;;;44.50;;
66741;SDS011;53654;54.152;19.432;2022-10-28T02:26:11;202.60;;;44.70;;
66741;SDS011;53654;54.152;19.432;2022-10-28T02:28:49;176.60;;;44.90;;
66741;SDS011;53654;54.152;19.432;2022-10-28T02:34:05;158.30;;;45.10;;
66741;SDS011;53654;54.152;19.432;2022-10-28T02:36:39;190.50;;;46.20;;
66741;SDS011;53654;54.152;19.432;2022-10-28T02:39:11;194.00;;;47.10;;
66741;SDS011;53654;54.152;19.432;2022-10-28T02:41:43;229.80;;;47.20;;
66741;SDS011;53654;54.152;19.432;2022-10-28T02:44:18;209.70;;;47.40;;
66741;SDS011;53654;54.152;19.432;2022-10-28T02:46:50;227.80;;;47.90;;
66741;SDS011;53654;54.152;19.432;2022-10-28T02:49:21;295.80;;;48.00;;
66741;SDS011;53654;54.152;19.432;2022-10-28T02:51:51;285.60;;;48.20;;
66741;SDS011;53654;54.152;19.432;2022-10-28T02:54:25;385.20;;;49.10;;
66741;SDS011;53654;54.152;19.432;2022-10-28T02:56:58;354.00;;;48.90;;
66741;SDS011;53654;54.152;19.432;2022-10-28T02:59:31;395.90;;;48.40;;
66741;SDS011;53654;54.152;19.432;2022-10-28T03:01:59;337.00;;;49.20;;
66741;SDS011;53654;54.152;19.432;2022-10-28T03:04:27;349.30;;;49.60;;
66741;SDS011;53654;54.152;19.432;2022-10-28T03:06:55;355.80;;;50.20;;
66741;SDS011;53654;54.152;19.432;2022-10-28T03:09:23;252.40;;;50.30;;
66741;SDS011;53654;54.152;19.432;2022-10-28T03:11:52;307.20;;;50.90;;
66741;SDS011;53654;54.152;19.432;2022-10-28T03:14:20;262.00;;;51.90;;
66741;SDS011;53654;54.152;19.432;2022-10-28T03:16:48;325.70;;;52.90;;
66741;SDS011;53654;54.152;19.432;2022-10-28T03:19:16;279.10;;;52.40;;
66741;SDS011;53654;54.152;19.432;2022-10-28T03:21:43;290.20;;;51.70;;
66741;SDS011;53654;54.152;19.432;2022-10-28T03:24:11;227.90;;;51.90;;
66741;SDS011;53654;54.152;19.432;2022-10-28T03:26:39;327.20;;;52.00;;
66741;SDS011;53654;54.152;19.432;2022-10-28T03:29:07;316.60;;;51.30;;
66741;SDS011;53654;54.152;19.432;2022-10-28T03:31:35;308.00;;;52.50;;
66741;SDS011;53654;54.152;19.432;2022-10-28T03:34:03;291.60;;;51.50;;
66741;SDS011;53654;54.152;19.432;2022-10-28T03:36:31;247.40;;;52.30;;
66741;SDS011;53654;54.152;19.432;2022-10-28T03:38:59;252.30;;;52.20;;
66741;SDS011;53654;54.152;19.432;2022-10-28T03:41:27;131.20;;;52.70;;
66741;SDS011;53654;54.152;19.432;2022-10-28T03:43:55;274.90;;;52.60;;
66741;SDS011;53654;54.152;19.432;2022-10-28T03:46:23;232.60;;;54.00;;
66741;SDS011;53654;54.152;19.432;2022-10-28T03:48:51;262.40;;;53.30;;
66741;SDS011;53654;54.152;19.432;2022-10-28T03:51:19;325.00;;;53.60;;
66741;SDS011;53654;54.152;19.432;2022-10-28T03:53:47;251.00;;;52.00;;
66741;SDS011;53654;54.152;19.432;2022-10-28T03:56:15;216.90;;;52.80;;
66741;SDS011;53654;54.152;19.432;2022-10-28T03:58:45;255.00;;;52.90;;
66741;SDS011;53654;54.152;19.432;2022-10-28T04:01:15;332.00;;;51.20;;
66741;SDS011;53654;54.152;19.432;2022-10-28T04:03:43;251.80;;;50.70;;
66741;SDS011;53654;54.152;19.432;2022-10-28T04:06:11;370.90;;;51.00;;
66741;SDS011;53654;54.152;19.432;2022-10-28T04:08:39;314.80;;;50.40;;
66741;SDS011;53654;54.152;19.432;2022-10-28T04:11:07;300.70;;;52.40;;
66741;SDS011;53654;54.152;19.432;2022-10-28T04:13:35;359.80;;;54.70;;
66741;SDS011;53654;54.152;19.432;2022-10-28T04:16:04;330.30;;;52.80;;
66741;SDS011;53654;54.152;19.432;2022-10-28T04:18:32;330.50;;;53.20;;
66741;SDS011;53654;54.152;19.432;2022-10-28T04:21:02;284.10;;;52.60;;
66741;SDS011;53654;54.152;19.432;2022-10-28T04:23:30;256.50;;;52.10;;
66741;SDS011;53654;54.152;19.432;2022-10-28T04:25:58;253.50;;;52.60;;
66741;SDS011;53654;54.152;19.432;2022-10-28T04:28:26;261.50;;;55.00;;
66741;SDS011;53654;54.152;19.432;2022-10-28T04:30:54;245.20;;;56.10;;
66741;SDS011;53654;54.152;19.432;2022-10-28T04:33:22;239.60;;;55.20;;
66741;SDS011;53654;54.152;19.432;2022-10-28T04:35:50;214.80;;;57.80;;
66741;SDS011;53654;54.152;19.432;2022-10-28T04:38:18;202.90;;;57.50;;
66741;SDS011;53654;54.152;19.432;2022-10-28T04:40:46;151.80;;;55.80;;
66741;SDS011;53654;54.152;19.432;2022-10-28T04:43:18;155.80;;;56.40;;
66741;SDS011;53654;54.152;19.432;2022-10-28T04:45:46;132.50;;;57.60;;
66741;SDS011;53654;54.152;19.432;2022-10-28T04:48:14;108.90;;;57.30;;
66741;SDS011;53654;54.152;19.432;2022-10-28T04:50:42;104.70;;;56.10;;
66741;SDS011;53654;54.152;19.432;2022-10-28T04:53:11;84.10;;;57.20;;
66741;SDS011;53654;54.152;19.432;2022-10-28T04:55:39;87.50;;;58.90;;
66741;SDS011;53654;54.152;19.432;2022-10-28T04:58:08;79.70;;;58.00;;
66741;SDS011;53654;54.152;19.432;2022-10-28T05:00:36;85.10;;;58.30;;
66741;SDS011;53654;54.152;19.432;2022-10-28T05:03:04;85.90;;;57.80;;
66741;SDS011;53654;54.152;19.432;2022-10-28T05:05:32;88.00;;;58.50;;
66741;SDS011;53654;54.152;19.432;2022-10-28T05:08:00;83.00;;;57.90;;
66741;SDS011;53654;54.152;19.432;2022-10-28T05:10:29;94.30;;;57.90;;
66741;SDS011;53654;54.152;19.432;2022-10-28T05:12:57;80.00;;;56.00;;
66741;SDS011;53654;54.152;19.432;2022-10-28T05:15:26;80.50;;;54.90;;
66741;SDS011;53654;54.152;19.432;2022-10-28T05:17:54;81.50;;;54.80;;
66741;SDS011;53654;54.152;19.432;2022-10-28T05:20:22;74.30;;;54.90;;
66741;SDS011;53654;54.152;19.432;2022-10-28T05:22:51;77.30;;;55.40;;
66741;SDS011;53654;54.152;19.432;2022-10-28T05:25:22;77.90;;;56.60;;
66741;SDS011;53654;54.152;19.432;2022-10-28T05:27:51;73.90;;;54.30;;
66741;SDS011;53654;54.152;19.432;2022-10-28T05:30:19;71.60;;;54.30;;
66741;SDS011;53654;54.152;19.432;2022-10-28T05:32:47;75.60;;;52.30;;
66741;SDS011;53654;54.152;19.432;2022-10-28T05:35:20;73.90;;;54.00;;
66741;SDS011;53654;54.152;19.432;2022-10-28T05:37:48;73.20;;;54.40;;
66741;SDS011;53654;54.152;19.432;2022-10-28T05:40:17;67.00;;;55.30;;
66741;SDS011;53654;54.152;19.432;2022-10-28T05:42:45;75.30;;;58.20;;
66741;SDS011;53654;54.152;19.432;2022-10-28T05:45:13;80.20;;;56.70;;
66741;SDS011;53654;54.152;19.432;2022-10-28T05:47:44;73.10;;;58.10;;
66741;SDS011;53654;54.152;19.432;2022-10-28T05:50:14;73.20;;;56.90;;
66741;SDS011;53654;54.152;19.432;2022-10-28T05:52:45;71.80;;;59.20;;
66741;SDS011;53654;54.152;19.432;2022-10-28T05:55:17;74.00;;;59.50;;
66741;SDS011;53654;54.152;19.432;2022-10-28T05:57:47;72.10;;;58.60;;
66741;SDS011;53654;54.152;19.432;2022-10-28T06:00:19;77.40;;;56.90;;
66741;SDS011;53654;54.152;19.432;2022-10-28T06:02:49;76.30;;;60.20;;
66741;SDS011;53654;54.152;19.432;2022-10-28T06:05:18;77.50;;;61.70;;
66741;SDS011;53654;54.152;19.432;2022-10-28T06:07:47;78.20;;;61.50;;
66741;SDS011;53654;54.152;19.432;2022-10-28T06:10:15;76.00;;;59.70;;
66741;SDS011;53654;54.152;19.432;2022-10-28T06:12:43;76.10;;;57.80;;
66741;SDS011;53654;54.152;19.432;2022-10-28T06:15:11;73.10;;;58.40;;
66741;SDS011;53654;54.152;19.432;2022-10-28T06:17:39;71.40;;;57.40;;
66741;SDS011;53654;54.152;19.432;2022-10-28T06:20:07;68.40;;;56.10;;
66741;SDS011;53654;54.152;19.432;2022-10-28T06:22:36;69.70;;;56.40;;
66741;SDS011;53654;54.152;19.432;2022-10-28T06:25:04;64.60;;;56.20;;
66741;SDS011;53654;54.152;19.432;2022-10-28T06:27:34;70.30;;;56.50;;
66741;SDS011;53654;54.152;19.432;2022-10-28T06:30:02;66.30;;;56.30;;
66741;SDS011;53654;54.152;19.432;2022-10-28T06:32:30;63.30;;;55.70;;
66741;SDS011;53654;54.152;19.432;2022-10-28T06:34:58;69.10;;;56.30;;
66741;SDS011;53654;54.152;19.432;2022-10-28T06:37:27;66.20;;;56.00;;
66741;SDS011;53654;54.152;19.432;2022-10-28T06:39:54;63.70;;;55.60;;
66741;SDS011;53654;54.152;19.432;2022-10-28T06:42:25;65.80;;;55.40;;
66741;SDS011;53654;54.152;19.432;2022-10-28T06:44:53;61.70;;;53.70;;
66741;SDS011;53654;54.152;19.432;2022-10-28T06:47:21;60.40;;;52.40;;
66741;SDS011;53654;54.152;19.432;2022-10-28T06:49:49;61.10;;;54.00;;
66741;SDS011;53654;54.152;19.432;2022-10-28T06:52:18;58.20;;;51.90;;
66741;SDS011;53654;54.152;19.432;2022-10-28T06:54:46;58.90;;;52.50;;
66741;SDS011;53654;54.152;19.432;2022-10-28T06:57:14;56.90;;;50.90;;
66741;SDS011;53654;54.152;19.432;2022-10-28T06:59:42;56.90;;;50.80;;
66741;SDS011;53654;54.152;19.432;2022-10-28T07:02:14;50.70;;;45.60;;
66741;SDS011;53654;54.152;19.432;2022-10-28T07:04:42;53.40;;;48.00;;
66741;SDS011;53654;54.152;19.432;2022-10-28T07:07:10;53.90;;;48.60;;
66741;SDS011;53654;54.152;19.432;2022-10-28T07:09:38;54.00;;;48.40;;
66741;SDS011;53654;54.152;19.432;2022-10-28T07:12:07;53.20;;;47.90;;
66741;SDS011;53654;54.152;19.432;2022-10-28T07:14:35;50.90;;;46.00;;
66741;SDS011;53654;54.152;19.432;2022-10-28T07:17:03;52.00;;;46.60;;
66741;SDS011;53654;54.152;19.432;2022-10-28T07:19:31;51.40;;;46.10;;
66741;SDS011;53654;54.152;19.432;2022-10-28T07:21:59;48.60;;;43.80;;
66741;SDS011;53654;54.152;19.432;2022-10-28T07:24:27;49.50;;;44.60;;
66741;SDS011;53654;54.152;19.432;2022-10-28T07:26:55;49.30;;;44.30;;
66741;SDS011;53654;54.152;19.432;2022-10-28T07:29:24;50.60;;;45.70;;
66741;SDS011;53654;54.152;19.432;2022-10-28T07:31:53;51.10;;;46.10;;
66741;SDS011;53654;54.152;19.432;2022-10-28T07:34:22;49.70;;;44.80;;
66741;SDS011;53654;54.152;19.432;2022-10-28T07:36:54;48.50;;;43.80;;
66741;SDS011;53654;54.152;19.432;2022-10-28T07:39:22;49.80;;;45.00;;
66741;SDS011;53654;54.152;19.432;2022-10-28T07:41:50;47.40;;;42.60;;
66741;SDS011;53654;54.152;19.432;2022-10-28T07:44:18;49.20;;;44.20;;
66741;SDS011;53654;54.152;19.432;2022-10-28T07:46:46;46.70;;;42.30;;
66741;SDS011;53654;54.152;19.432;2022-10-28T07:49:15;49.70;;;44.90;;
66741;SDS011;53654;54.152;19.432;2022-10-28T07:51:44;48.90;;;44.10;;
66741;SDS011;53654;54.152;19.432;2022-10-28T07:54:12;49.20;;;44.40;;
66741;SDS011;53654;54.152;19.432;2022-10-28T07:56:40;47.90;;;43.20;;
66741;SDS011;53654;54.152;19.432;2022-10-28T07:59:08;46.30;;;41.90;;
66741;SDS011;53654;54.152;19.432;2022-10-28T08:01:36;44.50;;;40.20;;
66741;SDS011;53654;54.152;19.432;2022-10-28T08:04:04;42.70;;;38.60;;
66741;SDS011;53654;54.152;19.432;2022-10-28T08:06:33;43.40;;;39.30;;
66741;SDS011;53654;54.152;19.432;2022-10-28T08:09:02;43.50;;;39.50;;
66741;SDS011;53654;54.152;19.432;2022-10-28T08:11:30;44.30;;;39.90;;
66741;SDS011;53654;54.152;19.432;2022-10-28T08:13:58;43.00;;;39.00;;
66741;SDS011;53654;54.152;19.432;2022-10-28T08:16:28;43.70;;;39.70;;
66741;SDS011;53654;54.152;19.432;2022-10-28T08:18:56;43.20;;;39.00;;
66741;SDS011;53654;54.152;19.432;2022-10-28T08:21:24;43.60;;;39.30;;
66741;SDS011;53654;54.152;19.432;2022-10-28T08:23:53;44.00;;;39.80;;
66741;SDS011;53654;54.152;19.432;2022-10-28T08:26:21;43.10;;;38.80;;
66741;SDS011;53654;54.152;19.432;2022-10-28T08:28:50;43.20;;;39.00;;
66741;SDS011;53654;54.152;19.432;2022-10-28T08:31:17;41.30;;;37.40;;
66741;SDS011;53654;54.152;19.432;2022-10-28T08:33:45;41.90;;;37.90;;
66741;SDS011;53654;54.152;19.432;2022-10-28T08:36:15;41.80;;;37.80;;
66741;SDS011;53654;54.152;19.432;2022-10-28T08:38:44;42.20;;;38.10;;
66741;SDS011;53654;54.152;19.432;2022-10-28T08:41:23;41.70;;;37.70;;
66741;SDS011;53654;54.152;19.432;2022-10-28T08:44:38;41.00;;;37.20;;
66741;SDS011;53654;54.152;19.432;2022-10-28T08:55:40;40.80;;;36.90;;
66741;SDS011;53654;54.152;19.432;2022-10-28T08:58:18;40.80;;;36.90;;
66741;SDS011;53654;54.152;19.432;2022-10-28T09:00:51;38.90;;;35.30;;
66741;SDS011;53654;54.152;19.432;2022-10-28T09:03:23;39.80;;;36.10;;
66741;SDS011;53654;54.152;19.432;2022-10-28T09:06:14;39.70;;;36.30;;
66741;SDS011;53654;54.152;19.432;2022-10-28T09:08:42;39.40;;;35.70;;
66741;SDS011;53654;54.152;19.432;2022-10-28T09:11:35;39.00;;;35.40;;
66741;SDS011;53654;54.152;19.432;2022-10-28T09:17:19;36.40;;;33.10;;
66741;SDS011;53654;54.152;19.432;2022-10-28T09:20:14;36.40;;;33.00;;
66741;SDS011;53654;54.152;19.432;2022-10-28T09:23:04;35.90;;;32.60;;
66741;SDS011;53654;54.152;19.432;2022-10-28T09:25:47;37.10;;;33.60;;
66741;SDS011;53654;54.152;19.432;2022-10-28T09:28:30;35.90;;;32.50;;
66741;SDS011;53654;54.152;19.432;2022-10-28T09:33:59;35.00;;;31.90;;
66741;SDS011;53654;54.152;19.432;2022-10-28T09:36:51;34.90;;;31.70;;
66741;SDS011;53654;54.152;19.432;2022-10-28T09:39:23;34.70;;;31.40;;
66741;SDS011;53654;54.152;19.432;2022-10-28T09:41:58;33.40;;;30.40;;
66741;SDS011;53654;54.152;19.432;2022-10-28T09:44:33;35.10;;;31.80;;
66741;SDS011;53654;54.152;19.432;2022-10-28T09:47:12;33.60;;;30.50;;
66741;SDS011;53654;54.152;19.432;2022-10-28T09:49:44;32.80;;;29.90;;
66741;SDS011;53654;54.152;19.432;2022-10-28T09:52:35;33.10;;;30.30;;
66741;SDS011;53654;54.152;19.432;2022-10-28T09:55:14;32.70;;;29.70;;
66741;SDS011;53654;54.152;19.432;2022-10-28T09:57:46;33.00;;;30.10;;
66741;SDS011;53654;54.152;19.432;2022-10-28T10:00:15;32.00;;;29.10;;
66741;SDS011;53654;54.152;19.432;2022-10-28T10:02:44;32.30;;;29.40;;
66741;SDS011;53654;54.152;19.432;2022-10-28T10:05:30;31.50;;;28.60;;
66741;SDS011;53654;54.152;19.432;2022-10-28T10:08:02;32.80;;;30.00;;
66741;SDS011;53654;54.152;19.432;2022-10-28T10:10:40;31.80;;;28.90;;
66741;SDS011;53654;54.152;19.432;2022-10-28T10:13:15;31.80;;;29.00;;
66741;SDS011;53654;54.152;19.432;2022-10-28T10:16:10;31.30;;;28.50;;
66741;SDS011;53654;54.152;19.432;2022-10-28T10:18:40;31.60;;;28.90;;
66741;SDS011;53654;54.152;19.432;2022-10-28T10:21:13;32.00;;;29.00;;
66741;SDS011;53654;54.152;19.432;2022-10-28T10:24:00;32.30;;;29.30;;
66741;SDS011;53654;54.152;19.432;2022-10-28T10:26:45;32.40;;;29.40;;
66741;SDS011;53654;54.152;19.432;2022-10-28T10:29:13;32.50;;;29.40;;
66741;SDS011;53654;54.152;19.432;2022-10-28T10:31:41;32.90;;;30.00;;
66741;SDS011;53654;54.152;19.432;2022-10-28T10:34:27;32.50;;;29.50;;
66741;SDS011;53654;54.152;19.432;2022-10-28T10:36:57;33.20;;;30.20;;
66741;SDS011;53654;54.152;19.432;2022-10-28T10:39:26;32.80;;;29.80;;
66741;SDS011;53654;54.152;19.432;2022-10-28T10:42:01;32.80;;;29.80;;
66741;SDS011;53654;54.152;19.432;2022-10-28T10:44:31;34.60;;;31.20;;
66741;SDS011;53654;54.152;19.432;2022-10-28T10:49:50;34.70;;;31.40;;
66741;SDS011;53654;54.152;19.432;2022-10-28T10:52:19;34.40;;;31.40;;
66741;SDS011;53654;54.152;19.432;2022-10-28T10:55:13;34.30;;;31.00;;
66741;SDS011;53654;54.152;19.432;2022-10-28T10:57:52;34.30;;;31.10;;
66741;SDS011;53654;54.152;19.432;2022-10-28T11:00:22;34.20;;;31.10;;
66741;SDS011;53654;54.152;19.432;2022-10-28T11:03:23;34.90;;;31.60;;
66741;SDS011;53654;54.152;19.432;2022-10-28T11:05:55;35.10;;;31.70;;
66741;SDS011;53654;54.152;19.432;2022-10-28T11:09:30;35.40;;;32.00;;
66741;SDS011;53654;54.152;19.432;2022-10-28T11:12:30;35.10;;;31.90;;
66741;SDS011;53654;54.152;19.432;2022-10-28T11:15:03;36.50;;;33.10;;
66741;SDS011;53654;54.152;19.432;2022-10-28T11:17:52;35.90;;;32.60;;
66741;SDS011;53654;54.152;19.432;2022-10-28T11:21:01;37.60;;;34.00;;
66741;SDS011;53654;54.152;19.432;2022-10-28T11:24:02;40.10;;;36.20;;
66741;SDS011;53654;54.152;19.432;2022-10-28T11:29:45;39.40;;;35.60;;
66741;SDS011;53654;54.152;19.432;2022-10-28T11:35:31;39.40;;;35.70;;
66741;SDS011;53654;54.152;19.432;2022-10-28T11:43:53;40.30;;;36.50;;
66741;SDS011;53654;54.152;19.432;2022-10-28T12:01:30;40.80;;;37.10;;
66741;SDS011;53654;54.152;19.432;2022-10-28T12:16:00;41.90;;;38.10;;
66741;SDS011;53654;54.152;19.432;2022-10-28T12:19:02;41.60;;;37.60;;
66741;SDS011;53654;54.152;19.432;2022-10-28T12:21:42;42.10;;;38.20;;
66741;SDS011;53654;54.152;19.432;2022-10-28T12:24:33;40.80;;;37.10;;
66741;SDS011;53654;54.152;19.432;2022-10-28T12:27:47;41.50;;;37.70;;
66741;SDS011;53654;54.152;19.432;2022-10-28T12:29:58;41.00;;;37.20;;
66741;SDS011;53654;54.152;19.432;2022-10-28T12:32:34;42.10;;;38.20;;
66741;SDS011;53654;54.152;19.432;2022-10-28T12:35:26;42.50;;;38.60;;
66741;SDS011;53654;54.152;19.432;2022-10-28T12:40:39;43.00;;;39.10;;
66741;SDS011;53654;54.152;19.432;2022-10-28T12:43:41;44.50;;;40.20;;
66741;SDS011;53654;54.152;19.432;2022-10-28T12:46:17;44.80;;;40.60;;
66741;SDS011;53654;54.152;19.432;2022-10-28T12:48:57;45.80;;;41.60;;
66741;SDS011;53654;54.152;19.432;2022-10-28T12:51:35;46.60;;;42.20;;
66741;SDS011;53654;54.152;19.432;2022-10-28T12:54:27;45.90;;;41.70;;
66741;SDS011;53654;54.152;19.432;2022-10-28T12:59:53;45.10;;;41.10;;
66741;SDS011;53654;54.152;19.432;2022-10-28T13:03:18;45.70;;;41.60;;
66741;SDS011;53654;54.152;19.432;2022-10-28T13:05:43;46.70;;;42.30;;
66741;SDS011;53654;54.152;19.432;2022-10-28T13:08:35;47.00;;;42.70;;
66741;SDS011;53654;54.152;19.432;2022-10-28T13:23:15;45.70;;;41.60;;
66741;SDS011;53654;54.152;19.432;2022-10-28T13:28:45;45.80;;;41.70;;
66741;SDS011;53654;54.152;19.432;2022-10-28T13:31:16;44.00;;;40.20;;
66741;SDS011;53654;54.152;19.432;2022-10-28T13:33:47;46.20;;;42.10;;
66741;SDS011;53654;54.152;19.432;2022-10-28T13:36:43;44.50;;;40.50;;
66741;SDS011;53654;54.152;19.432;2022-10-28T13:44:47;42.80;;;39.10;;
66741;SDS011;53654;54.152;19.432;2022-10-28T13:47:33;42.50;;;38.60;;
66741;SDS011;53654;54.152;19.432;2022-10-28T13:52:39;40.30;;;36.70;;
66741;SDS011;53654;54.152;19.432;2022-10-28T13:57:43;39.00;;;35.70;;
66741;SDS011;53654;54.152;19.432;2022-10-28T14:00:33;37.70;;;34.30;;
66741;SDS011;53654;54.152;19.432;2022-10-28T14:03:14;37.10;;;33.80;;
66741;SDS011;53654;54.152;19.432;2022-10-28T14:11:23;38.40;;;34.90;;
66741;SDS011;53654;54.152;19.432;2022-10-28T14:14:13;37.70;;;34.20;;
66741;SDS011;53654;54.152;19.432;2022-10-28T14:16:43;37.70;;;34.30;;
66741;SDS011;53654;54.152;19.432;2022-10-28T14:21:44;37.20;;;33.90;;
66741;SDS011;53654;54.152;19.432;2022-10-28T14:24:36;37.10;;;33.80;;
66741;SDS011;53654;54.152;19.432;2022-10-28T14:40:48;39.60;;;35.90;;
66741;SDS011;53654;54.152;19.432;2022-10-28T14:51:23;36.50;;;33.00;;
66741;SDS011;53654;54.152;19.432;2022-10-28T14:53:55;36.80;;;33.50;;
66741;SDS011;53654;54.152;19.432;2022-10-28T14:56:26;36.60;;;33.20;;
66741;SDS011;53654;54.152;19.432;2022-10-28T15:02:08;35.50;;;32.30;;
66741;SDS011;53654;54.152;19.432;2022-10-28T15:07:43;34.00;;;30.80;;
66741;SDS011;53654;54.152;19.432;2022-10-28T15:10:15;35.00;;;31.90;;
66741;SDS011;53654;54.152;19.432;2022-10-28T15:12:53;35.90;;;32.60;;
66741;SDS011;53654;54.152;19.432;2022-10-28T15:15:24;37.20;;;33.80;;
66741;SDS011;53654;54.152;19.432;2022-10-28T15:18:20;38.50;;;35.00;;
66741;SDS011;53654;54.152;19.432;2022-10-28T15:21:10;38.50;;;34.90;;
66741;SDS011;53654;54.152;19.432;2022-10-28T15:23:42;39.50;;;35.80;;
66741;SDS011;53654;54.152;19.432;2022-10-28T15:26:14;39.80;;;36.30;;
66741;SDS011;53654;54.152;19.432;2022-10-28T15:28:43;39.10;;;35.60;;
66741;SDS011;53654;54.152;19.432;2022-10-28T15:31:10;39.90;;;36.20;;
66741;SDS011;53654;54.152;19.432;2022-10-28T15:33:56;40.80;;;37.20;;
66741;SDS011;53654;54.152;19.432;2022-10-28T15:36:24;40.40;;;36.70;;
66741;SDS011;53654;54.152;19.432;2022-10-28T15:39:06;41.30;;;37.50;;
66741;SDS011;53654;54.152;19.432;2022-10-28T15:41:48;44.60;;;40.50;;
66741;SDS011;53654;54.152;19.432;2022-10-28T15:44:36;46.60;;;42.20;;
66741;SDS011;53654;54.152;19.432;2022-10-28T15:47:21;45.70;;;41.50;;
66741;SDS011;53654;54.152;19.432;2022-10-28T15:57:56;44.10;;;39.80;;
66741;SDS011;53654;54.152;19.432;2022-10-28T16:00:27;42.30;;;38.30;;
66741;SDS011;53654;54.152;19.432;2022-10-28T16:03:00;43.40;;;39.40;;
66741;SDS011;53654;54.152;19.432;2022-10-28T16:05:53;51.70;;;46.70;;
66741;SDS011;53654;54.152;19.432;2022-10-28T16:08:23;62.90;;;56.80;;
66741;SDS011;53654;54.152;19.432;2022-10-28T16:11:02;57.90;;;52.30;;
66741;SDS011;53654;54.152;19.432;2022-10-28T16:13:37;56.10;;;50.70;;
66741;SDS011;53654;54.152;19.432;2022-10-28T16:16:09;50.00;;;45.30;;
66741;SDS011;53654;54.152;19.432;2022-10-28T16:18:43;49.60;;;44.80;;
66741;SDS011;53654;54.152;19.432;2022-10-28T16:21:21;50.00;;;45.30;;
66741;SDS011;53654;54.152;19.432;2022-10-28T16:23:52;48.00;;;43.60;;
66741;SDS011;53654;54.152;19.432;2022-10-28T16:26:43;50.90;;;46.20;;
66741;SDS011;53654;54.152;19.432;2022-10-28T16:29:11;54.10;;;49.00;;
66741;SDS011;53654;54.152;19.432;2022-10-28T16:31:56;59.20;;;53.70;;
66741;SDS011;53654;54.152;19.432;2022-10-28T16:34:24;57.90;;;52.40;;
66741;SDS011;53654;54.152;19.432;2022-10-28T16:36:52;56.40;;;51.10;;
66741;SDS011;53654;54.152;19.432;2022-10-28T16:39:20;55.30;;;50.20;;
66741;SDS011;53654;54.152;19.432;2022-10-28T16:41:48;53.60;;;48.60;;
66741;SDS011;53654;54.152;19.432;2022-10-28T16:44:16;52.80;;;48.00;;
66741;SDS011;53654;54.152;19.432;2022-10-28T16:46:45;53.10;;;48.10;;
66741;SDS011;53654;54.152;19.432;2022-10-28T16:49:13;50.30;;;45.60;;
66741;SDS011;53654;54.152;19.432;2022-10-28T16:51:42;50.80;;;45.90;;
66741;SDS011;53654;54.152;19.432;2022-10-28T16:54:11;48.20;;;43.50;;
66741;SDS011;53654;54.152;19.432;2022-10-28T16:56:56;47.10;;;42.80;;
66741;SDS011;53654;54.152;19.432;2022-10-28T16:59:24;45.30;;;41.10;;
66741;SDS011;53654;54.152;19.432;2022-10-28T17:01:52;44.90;;;40.90;;
66741;SDS011;53654;54.152;19.432;2022-10-28T17:04:38;48.60;;;44.20;;
66741;SDS011;53654;54.152;19.432;2022-10-28T17:07:06;49.30;;;45.00;;
66741;SDS011;53654;54.152;19.432;2022-10-28T17:09:34;53.00;;;47.90;;
66741;SDS011;53654;54.152;19.432;2022-10-28T17:12:02;49.30;;;44.60;;
66741;SDS011;53654;54.152;19.432;2022-10-28T17:14:29;50.70;;;46.00;;
66741;SDS011;53654;54.152;19.432;2022-10-28T17:16:57;52.40;;;47.30;;
66741;SDS011;53654;54.152;19.432;2022-10-28T17:19:43;52.00;;;47.20;;
66741;SDS011;53654;54.152;19.432;2022-10-28T17:22:12;50.70;;;45.80;;
66741;SDS011;53654;54.152;19.432;2022-10-28T17:24:40;49.70;;;45.10;;
66741;SDS011;53654;54.152;19.432;2022-10-28T17:27:08;53.50;;;48.30;;
66741;SDS011;53654;54.152;19.432;2022-10-28T17:29:36;50.60;;;45.80;;
66741;SDS011;53654;54.152;19.432;2022-10-28T17:32:05;48.70;;;44.20;;